Time;durP1;ratioP1;P1;durP2;ratioP2;P2;SDS_P1;SDS_P2;PMS_P1;PMS_P2;Temp;Humidity;BMP_temperature;BMP_pressure;BME280_temperature;BME280_humidity;BME280_pressure;Samples;Min_cycle;Max_cycle;Signal;HPM_P1;HPM_P2
2022/01/22 00:00:44;;;;;;;10.87;7.37;;;;;;;1.32;100.00;98107.53;5057094;28;20182;-65
2022/01/22 00:03:10;;;;;;;7.90;6.50;;;;;;;1.16;100.00;98109.84;5055644;28;20181;-64
2022/01/22 00:05:35;;;;;;;13.90;7.23;;;;;;;1.25;100.00;98112.41;5053682;28;20655;-64
2022/01/22 00:08:01;;;;;;;15.40;7.77;;;;;;;1.28;100.00;98105.34;5037437;28;20205;-64
2022/01/22 00:10:26;;;;;;;12.47;6.67;;;;;;;1.24;100.00;98097.03;5054198;28;20678;-64
2022/01/22 00:15:20;;;;;;;12.23;6.73;;;;;;;1.24;100.00;98102.22;5073982;28;20188;-64
2022/01/22 00:17:47;;;;;;;13.53;6.43;;;;;;;1.27;100.00;98103.72;5059378;28;20268;-64
2022/01/22 00:20:15;;;;;;;9.40;6.13;;;;;;;1.13;100.00;98098.00;5036317;28;20269;-64
2022/01/22 00:22:42;;;;;;;11.57;6.40;;;;;;;1.21;100.00;98105.06;5073186;28;20195;-64
2022/01/22 00:25:09;;;;;;;10.83;6.63;;;;;;;1.26;100.00;98108.06;5068498;28;20185;-64
2022/01/22 00:27:36;;;;;;;11.27;7.43;;;;;;;1.35;100.00;98112.41;5048949;28;20181;-65
2022/01/22 00:30:04;;;;;;;10.50;7.50;;;;;;;1.40;100.00;98109.41;5073461;28;20208;-65
2022/01/22 00:32:29;;;;;;;11.83;7.10;;;;;;;1.37;100.00;98109.69;5073306;28;20223;-65
2022/01/22 00:34:54;;;;;;;9.83;6.73;;;;;;;1.36;100.00;98102.88;5067322;28;20181;-64
2022/01/22 00:37:20;;;;;;;10.63;6.97;;;;;;;1.35;100.00;98104.66;5063839;28;20215;-64
2022/01/22 00:39:45;;;;;;;13.23;6.80;;;;;;;1.35;100.00;98102.06;5073084;28;20220;-64
2022/01/22 00:42:13;;;;;;;8.87;6.47;;;;;;;1.30;100.00;98101.66;5073339;28;20201;-64
2022/01/22 00:44:39;;;;;;;11.30;6.77;;;;;;;1.39;100.00;98098.28;5073367;28;20224;-64
2022/01/22 00:47:05;;;;;;;11.10;7.03;;;;;;;1.60;100.00;98090.38;5066505;28;20174;-64
2022/01/22 00:49:31;;;;;;;10.23;6.87;;;;;;;1.50;100.00;98099.91;5035580;28;20248;-64
2022/01/22 00:51:57;;;;;;;9.90;6.70;;;;;;;1.42;100.00;98103.16;5052451;28;20205;-67
2022/01/22 00:54:23;;;;;;;14.43;7.43;;;;;;;1.31;100.00;98095.56;5072831;28;20174;-64
2022/01/22 00:56:48;;;;;;;11.07;6.63;;;;;;;1.45;100.00;98095.13;5066038;28;20656;-64
2022/01/22 00:59:13;;;;;;;10.93;6.80;;;;;;;1.54;100.00;98096.91;5053287;28;20666;-64
2022/01/22 01:01:39;;;;;;;12.37;7.10;;;;;;;1.46;100.00;98095.94;5059626;28;20197;-64
2022/01/22 01:04:07;;;;;;;10.77;6.70;;;;;;;1.54;100.00;98090.91;5057150;28;20539;-64
2022/01/22 01:06:33;;;;;;;11.83;6.70;;;;;;;1.46;100.00;98093.38;5053538;28;20180;-64
2022/01/22 01:09:00;;;;;;;10.63;6.97;;;;;;;1.50;100.00;98090.41;5053435;28;20220;-64
2022/01/22 01:11:28;;;;;;;10.70;6.63;;;;;;;1.47;100.00;98084.66;5056769;28;20263;-65
2022/01/22 01:13:58;;;;;;;12.97;6.83;;;;;;;1.62;100.00;98081.53;5040990;28;20206;-64
2022/01/22 01:33:00;;;;;;;10.73;6.60;;;;;;;1.50;100.00;98110.25;5058755;28;20192;-64
2022/01/22 01:35:27;;;;;;;10.77;6.50;;;;;;;1.54;100.00;98104.66;5073256;28;20177;-64
2022/01/22 01:37:55;;;;;;;10.97;6.57;;;;;;;1.68;100.00;98099.06;5072944;28;20190;-64
2022/01/22 01:40:22;;;;;;;8.13;6.23;;;;;;;1.72;100.00;98094.44;5070775;28;20696;-64
2022/01/22 01:45:22;;;;;;;8.67;5.93;;;;;;;1.92;100.00;98102.97;5072247;28;20192;-64
2022/01/22 01:48:06;;;;;;;6.80;5.80;;;;;;;1.75;100.00;98103.66;5054844;28;20657;-64
2022/01/22 01:50:35;;;;;;;7.67;5.87;;;;;;;1.78;100.00;98103.41;5040497;28;20186;-64
2022/01/22 01:55:49;;;;;;;10.03;6.10;;;;;;;1.69;100.00;98112.78;5069141;28;20215;-64
2022/01/22 01:58:15;;;;;;;8.80;5.97;;;;;;;1.60;100.00;98108.47;5072784;28;20173;-64
2022/01/22 02:00:41;;;;;;;6.70;6.00;;;;;;;1.70;100.00;98116.19;5070288;28;20563;-64
2022/01/22 02:03:08;;;;;;;9.40;6.03;;;;;;;1.76;100.00;98116.47;5052913;28;20266;-64
2022/01/22 02:05:35;;;;;;;10.37;6.63;;;;;;;1.88;100.00;98119.72;5053631;28;20186;-64
2022/01/22 02:08:01;;;;;;;7.60;6.20;;;;;;;1.78;100.00;98113.75;5052866;28;20196;-65
2022/01/22 02:10:30;;;;;;;8.37;5.70;;;;;;;1.89;100.00;98119.59;5052667;28;20190;-64
2022/01/22 02:23:42;;;;;;;8.50;6.40;;;;;;;1.97;100.00;98117.09;5052533;28;20185;-65
2022/01/22 02:26:09;;;;;;;10.33;6.57;;;;;;;1.95;100.00;98120.78;5054054;28;20533;-64
2022/01/22 02:28:36;;;;;;;9.57;6.47;;;;;;;2.14;100.00;98118.13;5054837;28;20198;-64
2022/01/22 02:31:26;;;;;;;11.23;6.27;;;;;;;2.09;100.00;98108.22;5056138;28;20202;-65
2022/01/22 02:34:07;;;;;;;13.87;6.40;;;;;;;2.14;100.00;98110.38;5071851;28;20272;-64
2022/01/22 02:36:54;;;;;;;8.23;6.20;;;;;;;1.98;100.00;98113.56;5063916;28;20170;-64
2022/01/22 02:39:24;;;;;;;10.77;6.00;;;;;;;2.15;100.00;98103.44;5042701;28;20257;-64
2022/01/22 02:41:52;;;;;;;7.53;5.60;;;;;;;2.05;100.00;98108.66;5075720;28;20170;-64
2022/01/22 02:44:33;;;;;;;9.03;6.30;;;;;;;2.20;100.00;98103.84;5065840;28;20276;-64
2022/01/22 02:47:01;;;;;;;7.87;6.33;;;;;;;2.02;100.00;98109.72;5056217;28;20255;-64
2022/01/22 02:49:27;;;;;;;9.03;6.23;;;;;;;2.14;100.00;98106.97;5071950;28;20571;-64
2022/01/22 02:51:52;;;;;;;7.30;5.90;;;;;;;2.12;100.00;98107.09;5038154;28;20178;-64
2022/01/22 02:54:18;;;;;;;7.33;6.20;;;;;;;2.20;100.00;98103.84;5064853;28;20188;-65
2022/01/22 02:56:43;;;;;;;6.83;5.57;;;;;;;2.23;100.00;98093.22;5073871;28;20199;-64
2022/01/22 02:59:08;;;;;;;8.80;5.97;;;;;;;2.08;100.00;98098.00;5059771;28;20186;-64
2022/01/22 03:01:34;;;;;;;8.57;6.20;;;;;;;1.97;100.00;98103.34;5062429;28;20181;-64
2022/01/22 03:03:59;;;;;;;10.67;6.40;;;;;;;1.93;100.00;98095.06;5075432;28;20189;-65
2022/01/22 03:06:25;;;;;;;7.57;6.20;;;;;;;2.03;100.00;98095.84;5073345;28;20290;-64
2022/01/22 03:08:50;;;;;;;7.33;6.03;;;;;;;2.03;100.00;98092.44;5074448;28;20250;-64
2022/01/22 03:11:29;;;;;;;10.20;6.27;;;;;;;2.00;100.00;98083.22;5068999;28;20634;-64
2022/01/22 03:27:33;;;;;;;8.20;6.40;;;;;;;2.22;100.00;98100.16;4992908;28;20349;-64
2022/01/22 03:29:59;;;;;;;8.10;6.23;;;;;;;2.23;99.40;98095.81;4985158;28;20201;-64
2022/01/22 03:32:29;;;;;;;9.13;6.13;;;;;;;2.29;98.98;98098.63;4974069;28;20185;-64
2022/01/22 03:35:01;;;;;;;8.97;5.97;;;;;;;1.95;100.00;98098.31;4979428;28;20192;-64
2022/01/22 03:37:28;;;;;;;9.80;6.47;;;;;;;2.03;100.00;98093.28;4990855;28;20199;-65
2022/01/22 03:39:55;;;;;;;13.23;7.00;;;;;;;2.20;100.00;98094.31;4973628;28;20297;-64
2022/01/22 03:42:21;;;;;;;9.50;6.70;;;;;;;2.11;99.95;98092.56;4982512;28;20200;-65
2022/01/22 03:44:46;;;;;;;9.13;6.67;;;;;;;2.30;99.48;98083.91;4991255;28;20619;-64
2022/01/22 03:47:12;;;;;;;8.37;6.63;;;;;;;2.23;100.00;98075.91;5015739;28;20247;-64
2022/01/22 03:49:37;;;;;;;7.70;6.00;;;;;;;2.24;100.00;98085.28;5073920;28;20679;-64
2022/01/22 03:52:04;;;;;;;8.43;6.37;;;;;;;2.36;99.72;98091.09;5074716;28;20611;-64
2022/01/22 03:54:29;;;;;;;9.80;5.90;;;;;;;2.26;98.40;98088.56;5073466;28;20189;-65
2022/01/22 03:56:55;;;;;;;12.47;6.20;;;;;;;2.21;98.82;98085.59;5055773;28;20653;-64
2022/01/22 03:59:20;;;;;;;8.27;6.37;;;;;;;2.26;99.53;98087.75;5054508;28;20193;-64
2022/01/22 04:04:31;;;;;;;8.53;6.20;;;;;;;2.18;98.70;98075.53;5055531;28;20274;-64
2022/01/22 04:09:30;;;;;;;10.70;7.37;;;;;;;2.35;97.90;98089.47;5073931;28;20217;-65
2022/01/22 04:11:57;;;;;;;10.47;5.90;;;;;;;2.35;98.14;98085.13;5072848;28;20212;-64
2022/01/22 04:14:27;;;;;;;10.07;7.00;;;;;;;2.15;98.70;98085.34;5069599;28;20194;-64
2022/01/22 04:17:22;;;;;;;12.93;6.50;;;;;;;2.26;99.01;98083.41;5054349;28;20189;-64
2022/01/22 04:25:20;;;;;;;10.47;7.00;;;;;;;2.30;97.81;98091.66;5065440;28;20247;-64
2022/01/22 04:27:48;;;;;;;11.60;6.80;;;;;;;2.27;97.88;98086.81;5058175;28;20176;-64
2022/01/22 04:30:13;;;;;;;13.10;7.07;;;;;;;2.18;99.12;98083.28;5070205;28;20198;-64
2022/01/22 04:32:39;;;;;;;12.40;7.40;;;;;;;2.27;98.50;98074.69;5053971;28;20189;-65
2022/01/22 04:35:04;;;;;;;9.83;7.10;;;;;;;2.35;97.94;98079.13;5063830;28;20242;-64
2022/01/22 04:37:30;;;;;;;11.87;7.00;;;;;;;2.13;99.04;98069.13;5073943;28;20190;-64
2022/01/22 04:39:55;;;;;;;8.73;7.30;;;;;;;2.36;98.46;98075.59;5073011;28;20689;-64
2022/01/22 04:42:21;;;;;;;11.10;7.30;;;;;;;2.42;98.28;98077.59;5071480;28;20541;-64
2022/01/22 04:44:56;;;;;;;11.60;7.37;;;;;;;2.32;98.14;98072.47;5073218;28;20178;-64
2022/01/22 04:52:41;;;;;;;11.27;7.40;;;;;;;2.13;99.21;98082.88;5059859;28;20316;-64
2022/01/22 04:55:08;;;;;;;9.10;7.60;;;;;;;2.24;98.73;98098.22;5053696;28;20197;-64
2022/01/22 04:57:44;;;;;;;10.43;7.33;;;;;;;2.38;98.78;98097.78;5053476;28;20185;-65
2022/01/22 05:00:12;;;;;;;10.47;7.23;;;;;;;2.38;98.02;98105.53;5035664;28;20170;-64
2022/01/22 05:02:39;;;;;;;12.23;8.03;;;;;;;2.35;97.70;98110.16;5066631;28;20630;-64
2022/01/22 05:05:05;;;;;;;9.03;6.87;;;;;;;2.33;98.32;98109.50;5055334;28;20547;-64
2022/01/22 05:07:31;;;;;;;10.70;7.57;;;;;;;2.30;98.75;98104.59;5072875;28;20185;-64
2022/01/22 05:09:56;;;;;;;11.20;7.17;;;;;;;2.46;97.19;98113.38;5072212;28;20200;-64
2022/01/22 05:12:22;;;;;;;9.97;7.30;;;;;;;2.49;97.45;98112.31;5061497;28;20189;-64
2022/01/22 05:14:47;;;;;;;9.80;6.47;;;;;;;2.38;95.73;98102.13;5053536;28;20190;-64
2022/01/22 05:17:13;;;;;;;8.47;6.63;;;;;;;2.23;97.69;98101.75;5069124;28;20174;-64
2022/01/22 05:22:16;;;;;;;9.93;7.43;;;;;;;2.45;95.88;98111.75;5054389;28;20643;-64
2022/01/22 05:24:46;;;;;;;9.17;6.30;;;;;;;2.48;95.93;98116.66;5053108;28;20650;-65
2022/01/22 05:27:27;;;;;;;8.67;6.90;;;;;;;2.44;95.74;98124.84;5053234;28;20182;-64
2022/01/22 05:30:02;;;;;;;9.23;7.07;;;;;;;2.51;95.92;98124.13;5056424;28;20236;-64
2022/01/22 05:32:48;;;;;;;11.73;7.30;;;;;;;2.42;95.69;98127.56;5052839;28;20725;-64
2022/01/22 05:37:59;;;;;;;8.43;6.47;;;;;;;2.36;96.64;98140.25;5062248;28;20196;-64
2022/01/22 05:40:24;;;;;;;8.20;6.77;;;;;;;2.31;96.17;98132.94;5072459;28;20225;-64
2022/01/22 05:42:50;;;;;;;11.43;7.20;;;;;;;2.40;96.24;98126.06;5072291;28;20235;-64
2022/01/22 05:45:15;;;;;;;9.67;6.97;;;;;;;2.33;96.01;98128.44;5072430;28;20189;-65
2022/01/22 05:47:41;;;;;;;9.70;6.40;;;;;;;2.41;95.76;98128.53;5065099;28;20269;-65
2022/01/22 05:50:13;;;;;;;10.00;6.63;;;;;;;2.38;96.44;98128.81;5052871;28;20208;-64
2022/01/22 05:52:52;;;;;;;9.40;6.60;;;;;;;2.47;95.89;98138.31;5052775;28;20174;-64
2022/01/22 05:59:35;;;;;;;11.90;7.20;;;;;;;2.31;95.71;98129.53;5054219;28;20228;-64
2022/01/22 06:00:56;;;;;;;11.10;7.10;;;;;;;2.47;95.75;98125.38;5072252;28;20201;-64
2022/01/22 06:03:21;;;;;;;10.57;6.77;;;;;;;2.40;95.55;98120.91;5057913;28;20189;-64
2022/01/22 06:05:46;;;;;;;10.23;6.50;;;;;;;2.25;95.42;98130.91;5067881;28;20178;-64
2022/01/22 06:08:15;;;;;;;9.50;6.87;;;;;;;2.25;96.05;98137.84;5067536;28;20260;-64
2022/01/22 06:10:41;;;;;;;8.23;6.87;;;;;;;2.38;96.02;98140.94;5075881;28;20547;-64
2022/01/22 06:13:13;;;;;;;9.73;6.70;;;;;;;2.39;94.98;98142.56;5057050;28;20312;-64
2022/01/22 06:15:39;;;;;;;9.67;6.90;;;;;;;2.50;94.65;98135.47;5059051;28;20174;-65
2022/01/22 06:18:05;;;;;;;9.93;6.83;;;;;;;2.46;94.52;98138.44;5066390;28;20650;-64
2022/01/22 06:20:30;;;;;;;9.97;7.07;;;;;;;2.40;95.72;98139.81;5057578;28;20289;-66
2022/01/22 06:22:55;;;;;;;9.33;7.03;;;;;;;2.37;95.55;98132.38;5062693;28;20193;-64
2022/01/22 06:25:21;;;;;;;10.13;7.17;;;;;;;2.33;95.49;98135.38;5059720;28;20231;-64
2022/01/22 06:27:46;;;;;;;8.07;6.47;;;;;;;2.33;95.76;98133.59;5057928;28;20211;-64
2022/01/22 06:30:12;;;;;;;9.67;6.30;;;;;;;2.25;95.34;98133.50;5057300;28;20254;-65
2022/01/22 06:32:37;;;;;;;9.77;7.20;;;;;;;2.28;95.82;98137.56;5070458;28;20686;-64
2022/01/22 06:35:03;;;;;;;11.40;6.70;;;;;;;2.37;94.62;98136.72;5038980;28;20232;-64
2022/01/22 06:37:28;;;;;;;10.90;7.07;;;;;;;2.43;94.34;98142.16;5075357;28;20191;-65
2022/01/22 06:42:31;;;;;;;10.60;6.67;;;;;;;2.46;94.59;98151.38;5059908;28;20235;-64
2022/01/22 06:44:58;;;;;;;10.00;6.87;;;;;;;2.33;95.89;98151.72;5074903;28;20193;-65
2022/01/22 06:47:25;;;;;;;10.33;6.70;;;;;;;2.40;94.46;98144.19;5060598;28;20251;-64
2022/01/22 06:49:50;;;;;;;7.20;6.50;;;;;;;2.45;93.96;98155.72;5055250;28;20198;-64
2022/01/22 06:52:16;;;;;;;7.37;6.23;;;;;;;2.49;95.45;98156.28;5055594;28;20261;-64
2022/01/22 06:54:43;;;;;;;10.23;7.57;;;;;;;2.44;94.26;98153.31;5055745;28;20208;-64
2022/01/22 06:57:08;;;;;;;10.83;6.87;;;;;;;2.48;95.37;98147.72;5072949;28;20260;-65
2022/01/22 06:59:34;;;;;;;9.33;7.37;;;;;;;2.60;94.55;98158.69;5071158;28;20269;-65
2022/01/22 07:01:59;;;;;;;8.97;6.80;;;;;;;2.56;94.53;98154.78;5057632;28;20584;-64
2022/01/22 07:04:25;;;;;;;8.23;6.60;;;;;;;2.58;94.65;98157.19;5055621;28;20215;-65
2022/01/22 07:06:50;;;;;;;8.00;6.70;;;;;;;2.49;94.96;98159.69;5068027;28;20205;-64
2022/01/22 07:09:15;;;;;;;11.07;7.57;;;;;;;2.42;95.46;98162.97;5056343;28;20216;-65
2022/01/22 07:11:41;;;;;;;11.23;7.00;;;;;;;2.47;96.14;98169.34;5072486;28;20228;-64
2022/01/22 07:14:06;;;;;;;13.07;7.80;;;;;;;2.42;95.41;98160.38;5074288;28;20261;-66
2022/01/22 07:16:32;;;;;;;10.07;6.80;;;;;;;2.66;95.23;98157.31;5066062;28;20182;-64
2022/01/22 07:19:01;;;;;;;13.77;7.57;;;;;;;2.68;95.26;98161.38;5055799;28;20243;-64
2022/01/22 07:21:29;;;;;;;11.70;7.13;;;;;;;2.58;96.10;98162.38;5069973;28;20268;-66
2022/01/22 07:24:41;;;;;;;10.63;7.33;;;;;;;2.47;97.10;98166.78;5060849;28;20193;-64
2022/01/22 07:26:41;;;;;;;11.10;7.20;;;;;;;2.57;97.14;98158.97;5060429;28;20641;-64
2022/01/22 07:29:06;;;;;;;10.43;6.97;;;;;;;2.46;98.42;98165.13;5074881;28;20251;-65
2022/01/22 07:31:32;;;;;;;11.00;7.17;;;;;;;2.56;98.46;98178.06;5054579;28;20188;-65
2022/01/22 07:33:57;;;;;;;12.33;8.23;;;;;;;2.40;99.19;98180.41;5055196;28;20232;-64
2022/01/22 07:36:23;;;;;;;15.23;7.53;;;;;;;2.38;98.93;98174.56;5020839;28;20670;-64
2022/01/22 07:38:48;;;;;;;8.80;7.23;;;;;;;2.42;98.27;98168.16;5036731;28;20233;-65
2022/01/22 07:41:14;;;;;;;12.07;7.57;;;;;;;2.42;99.30;98166.38;5054495;28;20189;-65
2022/01/22 07:43:40;;;;;;;12.70;8.20;;;;;;;2.59;97.69;98158.84;5072715;28;20175;-65
2022/01/22 07:46:06;;;;;;;12.70;8.63;;;;;;;2.37;99.53;98163.41;5074271;28;20650;-64
2022/01/22 07:48:32;;;;;;;13.27;7.83;;;;;;;2.39;99.23;98169.25;5072172;28;20208;-64
2022/01/22 07:50:57;;;;;;;13.57;8.60;;;;;;;2.41;98.90;98172.50;5072040;28;20193;-67
2022/01/22 07:53:24;;;;;;;10.73;7.97;;;;;;;2.68;100.00;98169.13;5054552;28;20193;-66
2022/01/22 07:55:50;;;;;;;13.43;8.23;;;;;;;2.53;99.27;98175.75;5036348;28;20516;-65
2022/01/22 07:58:16;;;;;;;12.93;8.33;;;;;;;2.42;99.32;98176.72;5054243;28;20265;-65
2022/01/22 08:00:41;;;;;;;12.27;8.40;;;;;;;2.50;100.00;98174.28;5056962;28;20614;-64
2022/01/22 08:03:08;;;;;;;13.03;8.60;;;;;;;2.39;100.00;98184.78;5073962;28;20208;-64
2022/01/22 08:05:34;;;;;;;11.13;8.03;;;;;;;2.36;100.00;98181.66;5074177;28;20310;-64
2022/01/22 08:07:59;;;;;;;11.50;8.27;;;;;;;2.53;100.00;98183.50;5073150;28;20276;-65
2022/01/22 08:10:25;;;;;;;12.37;8.23;;;;;;;2.50;100.00;98182.03;5067722;28;20213;-65
2022/01/22 08:12:51;;;;;;;13.43;8.67;;;;;;;2.36;100.00;98184.22;5054768;28;20182;-65
2022/01/22 08:15:17;;;;;;;11.40;8.93;;;;;;;2.29;100.00;98175.41;5074160;28;20192;-65
2022/01/22 08:17:44;;;;;;;14.17;8.57;;;;;;;2.34;100.00;98181.78;5073738;28;20657;-66
2022/01/22 08:20:14;;;;;;;15.33;10.20;;;;;;;2.35;100.00;98174.84;5069885;28;20635;-65
2022/01/22 08:22:41;;;;;;;12.60;8.77;;;;;;;2.31;100.00;98181.25;5054384;28;20170;-65
2022/01/22 08:25:07;;;;;;;14.97;9.50;;;;;;;2.27;100.00;98180.72;5052390;28;20190;-65
2022/01/22 08:27:40;;;;;;;13.10;8.93;;;;;;;2.26;100.00;98186.03;5069214;28;20181;-65
2022/01/22 08:30:09;;;;;;;13.30;8.97;;;;;;;2.34;100.00;98191.34;5070092;28;20201;-65
2022/01/22 08:37:51;;;;;;;14.83;9.63;;;;;;;2.41;100.00;98197.56;5041810;28;20212;-66
2022/01/22 08:40:17;;;;;;;21.20;9.40;;;;;;;2.26;100.00;98202.38;5072895;28;20221;-65
2022/01/22 08:42:45;;;;;;;14.10;9.30;;;;;;;2.26;100.00;98202.38;5073356;28;20260;-65
2022/01/22 08:45:10;;;;;;;13.70;9.23;;;;;;;2.16;100.00;98206.75;5045043;28;20247;-65
2022/01/22 08:47:36;;;;;;;14.77;9.93;;;;;;;2.28;100.00;98212.59;5067562;28;20181;-65
2022/01/22 08:50:02;;;;;;;17.47;10.00;;;;;;;2.21;100.00;98203.75;5072722;28;20254;-65
2022/01/22 08:52:31;;;;;;;15.57;10.10;;;;;;;2.19;100.00;98198.69;5073271;28;20181;-64
2022/01/22 08:54:57;;;;;;;15.00;9.17;;;;;;;2.20;100.00;98208.09;5064294;28;20623;-65
2022/01/22 08:57:22;;;;;;;16.27;9.53;;;;;;;2.21;100.00;98220.09;5053302;28;20235;-64
2022/01/22 08:59:47;;;;;;;20.20;10.13;;;;;;;2.31;100.00;98220.06;5068988;28;20626;-64
2022/01/22 09:02:14;;;;;;;13.97;9.47;;;;;;;2.37;100.00;98215.16;5053424;28;20178;-64
2022/01/22 09:04:40;;;;;;;17.53;9.53;;;;;;;2.41;100.00;98211.31;5059186;28;20186;-64
2022/01/22 09:07:05;;;;;;;13.07;8.93;;;;;;;2.28;100.00;98216.00;5072951;28;20526;-64
2022/01/22 09:09:31;;;;;;;15.60;9.03;;;;;;;2.26;100.00;98222.25;5072487;28;20657;-65
2022/01/22 09:11:56;;;;;;;14.40;10.30;;;;;;;2.28;100.00;98222.94;5072087;28;20697;-64
2022/01/22 09:14:22;;;;;;;14.87;9.00;;;;;;;2.39;100.00;98230.53;5051671;28;20186;-64
2022/01/22 09:16:49;;;;;;;14.80;10.13;;;;;;;2.41;100.00;98237.19;5060152;28;20238;-64
2022/01/22 09:19:15;;;;;;;15.93;9.43;;;;;;;2.33;100.00;98236.25;5062204;28;20281;-64
2022/01/22 09:21:43;;;;;;;16.00;10.17;;;;;;;2.40;100.00;98230.38;5054210;28;20604;-64
2022/01/22 09:24:10;;;;;;;15.67;9.90;;;;;;;2.34;100.00;98224.97;5052967;28;20192;-66
2022/01/22 09:26:36;;;;;;;16.50;9.67;;;;;;;2.43;100.00;98229.28;5052963;28;20192;-64
2022/01/22 09:29:03;;;;;;;13.13;9.40;;;;;;;2.57;100.00;98231.44;5052887;28;20288;-65
2022/01/22 09:31:29;;;;;;;13.73;10.10;;;;;;;2.71;100.00;98231.00;5061120;28;20181;-64
2022/01/22 09:33:57;;;;;;;17.27;9.67;;;;;;;2.56;100.00;98232.41;5072407;28;20181;-64
2022/01/22 09:36:24;;;;;;;15.17;9.93;;;;;;;2.57;100.00;98234.00;5055008;28;20331;-64
2022/01/22 09:38:50;;;;;;;12.17;8.97;;;;;;;2.60;100.00;98238.94;5062946;28;20217;-64
2022/01/22 09:41:17;;;;;;;15.17;9.67;;;;;;;2.68;100.00;98241.59;5064294;28;20662;-64
2022/01/22 09:43:42;;;;;;;15.20;9.50;;;;;;;2.63;100.00;98237.81;5061175;28;20185;-64
2022/01/22 09:46:08;;;;;;;15.10;9.70;;;;;;;2.65;100.00;98241.91;5052530;28;20560;-64
2022/01/22 09:48:34;;;;;;;12.33;8.77;;;;;;;2.66;100.00;98250.50;5053530;28;20306;-63
2022/01/22 09:50:59;;;;;;;12.53;9.10;;;;;;;2.71;100.00;98256.88;5066276;28;20631;-64
2022/01/22 09:53:25;;;;;;;16.43;9.30;;;;;;;2.85;100.00;98256.41;5052320;28;20523;-64
2022/01/22 09:55:51;;;;;;;15.60;10.00;;;;;;;2.87;100.00;98253.69;5052637;28;20523;-65
2022/01/22 09:58:17;;;;;;;14.00;9.67;;;;;;;2.82;100.00;98263.66;5052651;28;20186;-64
2022/01/22 10:00:42;;;;;;;13.87;9.57;;;;;;;2.82;100.00;98256.69;5054536;28;20192;-64
2022/01/22 10:03:19;;;;;;;13.37;9.10;;;;;;;2.74;100.00;98263.53;5071645;28;20535;-64
2022/01/22 10:05:44;;;;;;;15.80;9.90;;;;;;;2.74;100.00;98255.75;5061847;28;20181;-65
2022/01/22 10:08:30;;;;;;;11.07;9.03;;;;;;;2.80;100.00;98262.97;5071343;28;20193;-65
2022/01/22 10:10:58;;;;;;;15.90;9.20;;;;;;;2.82;100.00;98263.66;5054190;28;20185;-65
2022/01/22 10:13:43;;;;;;;13.20;9.47;;;;;;;2.94;100.00;98265.13;5071803;28;20181;-64
2022/01/22 10:16:14;;;;;;;18.27;10.37;;;;;;;2.87;100.00;98269.22;5067941;28;20200;-64
2022/01/22 10:18:40;;;;;;;14.30;9.70;;;;;;;2.78;100.00;98263.13;5052504;28;20534;-65
2022/01/22 10:21:14;;;;;;;17.37;9.63;;;;;;;2.98;100.00;98256.09;5052102;28;20185;-64
2022/01/22 10:23:41;;;;;;;15.50;10.17;;;;;;;3.08;100.00;98256.84;5052071;28;20224;-65
2022/01/22 10:26:11;;;;;;;14.77;9.40;;;;;;;3.35;100.00;98256.03;5055726;28;20192;-65
2022/01/22 10:28:47;;;;;;;17.43;9.90;;;;;;;3.28;100.00;98249.81;5070272;28;20189;-65
2022/01/22 10:31:21;;;;;;;13.00;9.27;;;;;;;3.33;100.00;98256.22;5064123;28;20178;-65
2022/01/22 10:34:09;;;;;;;18.03;9.67;;;;;;;3.42;100.00;98259.69;5064469;28;20626;-65
2022/01/22 10:36:34;;;;;;;14.97;9.37;;;;;;;3.42;100.00;98257.09;5070461;28;20173;-66
2022/01/22 10:39:00;;;;;;;15.37;8.77;;;;;;;3.40;100.00;98251.25;5066065;28;20692;-66
2022/01/22 10:41:41;;;;;;;10.97;7.93;;;;;;;3.40;100.00;98251.25;5061111;28;20211;-63
2022/01/22 10:44:10;;;;;;;13.63;9.10;;;;;;;3.34;100.00;98252.63;5054024;28;20203;-64
2022/01/22 10:46:46;;;;;;;14.37;8.00;;;;;;;3.37;100.00;98242.94;5053563;28;20186;-67
2022/01/22 10:49:30;;;;;;;13.50;7.40;;;;;;;3.25;100.00;98243.16;5053776;28;20201;-66
2022/01/22 10:52:01;;;;;;;13.63;8.37;;;;;;;3.27;100.00;98241.25;5056957;28;20173;-66
2022/01/22 10:54:32;;;;;;;9.00;7.40;;;;;;;3.19;100.00;98232.53;5063368;28;20225;-66
2022/01/22 10:57:09;;;;;;;8.87;7.90;;;;;;;3.34;100.00;98234.50;5043874;28;20173;-67
2022/01/22 10:59:35;;;;;;;10.80;8.50;;;;;;;3.60;100.00;98232.03;5071828;28;20700;-66
2022/01/22 11:02:00;;;;;;;11.57;8.17;;;;;;;3.55;100.00;98234.25;5055177;28;20213;-66
2022/01/22 11:04:35;;;;;;;13.10;7.80;;;;;;;3.59;100.00;98227.00;5057596;28;20533;-66
2022/01/22 11:07:08;;;;;;;12.43;7.63;;;;;;;3.71;100.00;98226.63;5055225;28;20672;-66
2022/01/22 11:09:34;;;;;;;12.83;7.87;;;;;;;3.52;100.00;98220.75;5073602;28;20289;-66
2022/01/22 11:12:02;;;;;;;15.13;8.27;;;;;;;3.51;100.00;98230.31;5068347;28;20650;-66
2022/01/22 11:14:31;;;;;;;12.07;8.07;;;;;;;3.59;100.00;98224.41;5056247;28;20185;-65
2022/01/22 11:16:56;;;;;;;10.40;8.03;;;;;;;3.74;100.00;98228.91;5062122;28;20190;-65
2022/01/22 11:19:33;;;;;;;9.80;7.13;;;;;;;3.69;100.00;98230.31;5056379;28;20196;-64
2022/01/22 11:22:10;;;;;;;11.47;7.97;;;;;;;3.71;100.00;98229.22;5062443;28;20166;-65
2022/01/22 11:24:43;;;;;;;11.47;8.03;;;;;;;3.71;100.00;98223.22;5074871;28;20188;-65
2022/01/22 11:27:15;;;;;;;15.20;7.97;;;;;;;3.57;100.00;98227.13;5073417;28;20634;-65
2022/01/22 11:29:45;;;;;;;12.27;7.70;;;;;;;3.59;100.00;98229.56;5068214;28;20558;-65
2022/01/22 11:32:12;;;;;;;11.10;7.20;;;;;;;3.81;100.00;98236.09;5074811;28;20197;-65
2022/01/22 11:34:40;;;;;;;10.30;7.90;;;;;;;3.65;100.00;98229.81;5043060;28;20193;-65
2022/01/22 11:37:10;;;;;;;8.63;6.90;;;;;;;3.61;100.00;98225.06;5071184;28;20193;-66
2022/01/22 11:39:36;;;;;;;9.13;7.33;;;;;;;3.68;100.00;98228.69;5058942;28;20228;-66
2022/01/22 11:42:04;;;;;;;10.13;6.60;;;;;;;3.51;100.00;98232.09;5058627;28;20217;-65
2022/01/22 11:45:01;;;;;;;10.37;7.20;;;;;;;3.46;100.00;98234.28;5058989;28;20690;-65
2022/01/22 11:47:27;;;;;;;10.07;6.87;;;;;;;3.56;100.00;98232.47;5058393;28;20189;-67
2022/01/22 11:50:11;;;;;;;9.83;6.57;;;;;;;3.83;100.00;98237.59;5067822;28;20205;-65
2022/01/22 11:52:41;;;;;;;10.73;7.43;;;;;;;3.70;100.00;98232.78;5055158;28;20256;-65
2022/01/22 11:55:15;;;;;;;9.80;7.03;;;;;;;3.74;100.00;98234.09;5072540;28;20181;-65
2022/01/22 11:57:43;;;;;;;11.77;7.73;;;;;;;3.66;100.00;98230.63;5072751;28;20181;-65
2022/01/22 12:00:24;;;;;;;13.57;7.90;;;;;;;3.79;100.00;98225.09;5073520;28;20255;-66
2022/01/22 12:03:08;;;;;;;13.60;7.87;;;;;;;3.87;100.00;98217.38;5071041;28;20184;-64
2022/01/22 12:05:54;;;;;;;9.23;6.50;;;;;;;3.86;100.00;98218.31;5073158;28;20189;-65
2022/01/22 12:08:23;;;;;;;8.67;7.30;;;;;;;4.06;100.00;98218.03;5057918;28;20566;-65
2022/01/22 12:16:39;;;;;;;7.63;6.10;;;;;;;3.91;100.00;98224.69;5068321;28;20211;-65
2022/01/22 12:19:09;;;;;;;13.17;6.77;;;;;;;3.87;100.00;98214.75;5070550;28;20181;-65
2022/01/22 12:21:37;;;;;;;7.90;6.20;;;;;;;4.10;99.97;98216.75;5046040;28;20530;-65
2022/01/22 12:24:06;;;;;;;8.50;5.90;;;;;;;3.97;100.00;98212.91;5060460;28;20186;-65
2022/01/22 12:26:42;;;;;;;7.63;5.67;;;;;;;3.97;99.86;98220.69;5045484;28;20185;-67
2022/01/22 12:29:30;;;;;;;9.17;5.30;;;;;;;3.86;100.00;98213.94;5067529;28;20506;-64
2022/01/22 12:32:15;;;;;;;7.50;5.27;;;;;;;4.01;100.00;98222.81;5053347;28;20217;-65
2022/01/22 12:35:18;;;;;;;11.13;6.00;;;;;;;4.10;98.82;98216.75;5061214;28;20213;-65
2022/01/22 12:37:50;;;;;;;5.57;4.97;;;;;;;3.93;100.00;98215.00;5001241;28;20194;-65
2022/01/22 12:40:30;;;;;;;7.63;5.30;;;;;;;4.27;99.08;98217.69;5053226;28;20229;-65
2022/01/22 12:43:06;;;;;;;5.53;4.93;;;;;;;4.18;99.55;98213.38;5062257;28;20256;-65
2022/01/22 12:45:34;;;;;;;6.63;5.10;;;;;;;4.21;98.57;98222.66;5061907;28;20179;-65
2022/01/22 12:48:00;;;;;;;8.17;5.40;;;;;;;4.17;97.87;98219.56;5056060;28;20213;-66
2022/01/22 12:50:30;;;;;;;7.20;5.03;;;;;;;4.29;99.84;98230.53;5052907;28;20190;-65
2022/01/22 12:53:01;;;;;;;5.40;4.90;;;;;;;4.24;98.50;98225.75;5060579;28;20278;-65
2022/01/22 12:55:48;;;;;;;6.50;4.73;;;;;;;4.08;97.12;98228.22;5071037;28;20181;-65
2022/01/22 12:58:22;;;;;;;4.83;4.33;;;;;;;4.00;97.37;98223.81;5053409;28;20600;-65
2022/01/22 13:00:52;;;;;;;7.53;4.20;;;;;;;3.90;98.73;98227.44;5041774;28;20199;-65
2022/01/22 13:03:35;;;;;;;6.50;4.30;;;;;;;3.78;97.89;98226.88;5052849;28;20197;-66
2022/01/22 13:06:01;;;;;;;7.60;4.00;;;;;;;3.58;98.45;98209.78;5052913;28;20203;-65